EJU73ZQ LSGG-LEPA
Flight info
| Callsign | EJU73ZQ |
|---|---|
| Flight time | N/A |
| Altitude | 37000 |
| Route | BALSI DCT RETNO DCT TUPOX DCT MTG DCT DIVKO DCT VATIR DCT PIVUS DCT BODEQ DCT VERSO L129 LUNIK |
| Aircraft | A319/M-SDE2E3FGIJ1RWXYZ/LB1 |
Departure
| Time | 2026-05-06 16:13 |
|---|---|
| Airport | Geneva International Airport (LSGG) |
Arrival
| Time | N/A |
|---|---|
| Airport | Palma de Mallorca Airport (LEPA) |
| Time | Latitude | Longitude | Altitude | Speed | Heading |
|---|---|---|---|---|---|
| 2026-05-06 15:45 | 46.23450 | 6.10851 | 1404 ft | 0 kts | 135° |
| 2026-05-06 16:06 | 46.23448 | 6.10855 | 1400 ft | 1 kts | 135° |
| 2026-05-06 16:07 | 46.23433 | 6.10876 | 1402 ft | 5 kts | 135° |
| 2026-05-06 16:07 | 46.23416 | 6.10926 | 1394 ft | 7 kts | 80° |
| 2026-05-06 16:07 | 46.23454 | 6.10990 | 1396 ft | 10 kts | 46° |
| 2026-05-06 16:07 | 46.23511 | 6.11071 | 1403 ft | 13 kts | 45° |
| 2026-05-06 16:08 | 46.23578 | 6.11161 | 1392 ft | 11 kts | 23° |
| 2026-05-06 16:08 | 46.23645 | 6.11102 | 1394 ft | 13 kts | 315° |
| 2026-05-06 16:08 | 46.23727 | 6.11111 | 1383 ft | 17 kts | 47° |
| 2026-05-06 16:08 | 46.23826 | 6.11258 | 1378 ft | 22 kts | 45° |
| 2026-05-06 16:09 | 46.23941 | 6.11425 | 1374 ft | 25 kts | 45° |
| 2026-05-06 16:09 | 46.24071 | 6.11616 | 1369 ft | 28 kts | 46° |
| 2026-05-06 16:09 | 46.24214 | 6.11827 | 1363 ft | 31 kts | 45° |
| 2026-05-06 16:09 | 46.24362 | 6.12044 | 1366 ft | 29 kts | 46° |
| 2026-05-06 16:10 | 46.24494 | 6.12242 | 1372 ft | 26 kts | 47° |
| 2026-05-06 16:10 | 46.24612 | 6.12410 | 1369 ft | 22 kts | 45° |
| 2026-05-06 16:10 | 46.24722 | 6.12572 | 1362 ft | 24 kts | 45° |
| 2026-05-06 16:10 | 46.24804 | 6.12666 | 1362 ft | 13 kts | 22° |
| 2026-05-06 16:11 | 46.24880 | 6.12706 | 1364 ft | 10 kts | 19° |
| 2026-05-06 16:11 | 46.24939 | 6.12733 | 1367 ft | 7 kts | 5° |
| 2026-05-06 16:11 | 46.24974 | 6.12720 | 1368 ft | 4 kts | 328° |
| 2026-05-06 16:11 | 46.24998 | 6.12684 | 1371 ft | 6 kts | 306° |
| 2026-05-06 16:12 | 46.24984 | 6.12630 | 1372 ft | 8 kts | 227° |
| 2026-05-06 16:12 | 46.24874 | 6.12464 | 1372 ft | 51 kts | 226° |
| 2026-05-06 16:12 | 46.24453 | 6.11845 | 1372 ft | 119 kts | 225° |
| 2026-05-06 16:12 | 46.23749 | 6.10808 | 1436 ft | 162 kts | 225° |
| 2026-05-06 16:13 | 46.22971 | 6.09662 | 2127 ft | 159 kts | 226° |
| 2026-05-06 16:13 | 46.22195 | 6.08518 | 2873 ft | 160 kts | 224° |
| 2026-05-06 16:13 | 46.21391 | 6.07357 | 3457 ft | 172 kts | 225° |
| 2026-05-06 16:13 | 46.20497 | 6.06052 | 3857 ft | 194 kts | 225° |
| 2026-05-06 16:14 | 46.19500 | 6.04592 | 4240 ft | 214 kts | 225° |
| 2026-05-06 16:14 | 46.18400 | 6.02983 | 4708 ft | 233 kts | 225° |
| 2026-05-06 16:14 | 46.17216 | 6.01252 | 5253 ft | 252 kts | 225° |
| 2026-05-06 16:14 | 46.15960 | 5.99415 | 6096 ft | 259 kts | 225° |
| 2026-05-06 16:15 | 46.14696 | 5.97530 | 7019 ft | 263 kts | 226° |
| 2026-05-06 16:15 | 46.13214 | 5.95982 | 7889 ft | 269 kts | 203° |
| 2026-05-06 16:15 | 46.11352 | 5.95547 | 8801 ft | 277 kts | 178° |
| 2026-05-06 16:15 | 46.09457 | 5.95942 | 9720 ft | 280 kts | 173° |
| 2026-05-06 16:16 | 46.07478 | 5.96396 | 10336 ft | 295 kts | 173° |
| 2026-05-06 16:16 | 46.05406 | 5.96860 | 10715 ft | 314 kts | 173° |
| 2026-05-06 16:16 | 46.03232 | 5.97343 | 11407 ft | 321 kts | 173° |
| 2026-05-06 16:16 | 46.01021 | 5.97830 | 12199 ft | 325 kts | 173° |
| 2026-05-06 16:17 | 45.98765 | 5.98317 | 12996 ft | 330 kts | 174° |
| 2026-05-06 16:17 | 45.96480 | 5.98724 | 13766 ft | 333 kts | 180° |
| 2026-05-06 16:17 | 45.94161 | 5.98639 | 14461 ft | 335 kts | 185° |
| 2026-05-06 16:17 | 45.91822 | 5.98483 | 15179 ft | 338 kts | 185° |
| 2026-05-06 16:18 | 45.90265 | 5.98384 | 15644 ft | 340 kts | 184° |
| 2026-05-06 16:18 | 45.87889 | 5.98237 | 16344 ft | 343 kts | 184° |
| 2026-05-06 16:18 | 45.85496 | 5.98091 | 17058 ft | 346 kts | 184° |
| 2026-05-06 16:18 | 45.83078 | 5.97945 | 17773 ft | 350 kts | 184° |
| 2026-05-06 16:19 | 45.80631 | 5.97800 | 18440 ft | 353 kts | 184° |
| 2026-05-06 16:19 | 45.78171 | 5.97656 | 19044 ft | 356 kts | 184° |
| 2026-05-06 16:19 | 45.75686 | 5.97536 | 19676 ft | 359 kts | 184° |
| 2026-05-06 16:19 | 45.73181 | 5.97434 | 20298 ft | 361 kts | 184° |
| 2026-05-06 16:20 | 45.70662 | 5.97335 | 20911 ft | 364 kts | 184° |
| 2026-05-06 16:20 | 45.68117 | 5.97235 | 21520 ft | 367 kts | 184° |
| 2026-05-06 16:20 | 45.65554 | 5.97112 | 22140 ft | 370 kts | 184° |
| 2026-05-06 16:20 | 45.62981 | 5.96964 | 22736 ft | 372 kts | 185° |
| 2026-05-06 16:21 | 45.60381 | 5.96806 | 23322 ft | 375 kts | 185° |
| 2026-05-06 16:21 | 45.57763 | 5.96649 | 23837 ft | 378 kts | 185° |
| 2026-05-06 16:21 | 45.55143 | 5.96493 | 24319 ft | 380 kts | 185° |
| 2026-05-06 16:21 | 45.52472 | 5.96339 | 24808 ft | 382 kts | 185° |
| 2026-05-06 16:22 | 45.49813 | 5.96185 | 25281 ft | 384 kts | 185° |
| 2026-05-06 16:22 | 45.47143 | 5.95865 | 25743 ft | 384 kts | 192° |
| 2026-05-06 16:22 | 45.44614 | 5.95106 | 26191 ft | 384 kts | 195° |
| 2026-05-06 16:22 | 45.42000 | 5.94283 | 26694 ft | 386 kts | 195° |
| 2026-05-06 16:23 | 45.39438 | 5.93479 | 27132 ft | 388 kts | 195° |
| 2026-05-06 16:23 | 45.36798 | 5.92653 | 27590 ft | 389 kts | 195° |
| 2026-05-06 16:23 | 45.34209 | 5.91845 | 28029 ft | 390 kts | 196° |
| 2026-05-06 16:23 | 45.31555 | 5.91016 | 28465 ft | 391 kts | 196° |
| 2026-05-06 16:24 | 45.28892 | 5.90187 | 28931 ft | 392 kts | 196° |
| 2026-05-06 16:24 | 45.26224 | 5.89360 | 29376 ft | 393 kts | 196° |
| 2026-05-06 16:24 | 45.23549 | 5.88530 | 29807 ft | 395 kts | 197° |
| 2026-05-06 16:24 | 45.20861 | 5.87695 | 30216 ft | 396 kts | 197° |
| 2026-05-06 16:25 | 45.18166 | 5.86857 | 30548 ft | 397 kts | 197° |
| 2026-05-06 16:25 | 45.15460 | 5.86016 | 30882 ft | 399 kts | 197° |
| 2026-05-06 16:25 | 45.12798 | 5.85192 | 31208 ft | 400 kts | 197° |
| 2026-05-06 16:25 | 45.10063 | 5.84349 | 31542 ft | 402 kts | 197° |
| 2026-05-06 16:26 | 45.07339 | 5.83513 | 31919 ft | 401 kts | 197° |
| 2026-05-06 16:26 | 45.04623 | 5.82676 | 32358 ft | 399 kts | 197° |
| 2026-05-06 16:26 | 45.01910 | 5.81837 | 32742 ft | 399 kts | 197° |
| 2026-05-06 16:26 | 44.99202 | 5.81004 | 33205 ft | 398 kts | 197° |
| 2026-05-06 16:27 | 44.96499 | 5.80173 | 33665 ft | 396 kts | 197° |
| 2026-05-06 16:27 | 44.93808 | 5.79344 | 34054 ft | 396 kts | 197° |
| 2026-05-06 16:27 | 44.91116 | 5.78510 | 34365 ft | 396 kts | 197° |
| 2026-05-06 16:27 | 44.88434 | 5.77679 | 34649 ft | 396 kts | 197° |
| 2026-05-06 16:28 | 44.85727 | 5.76848 | 34935 ft | 397 kts | 197° |
| 2026-05-06 16:28 | 44.83035 | 5.76027 | 35209 ft | 397 kts | 197° |
| 2026-05-06 16:28 | 44.80370 | 5.75217 | 35477 ft | 397 kts | 196° |
| 2026-05-06 16:28 | 44.77673 | 5.74395 | 35745 ft | 398 kts | 196° |
| 2026-05-06 16:29 | 44.74985 | 5.73573 | 35994 ft | 398 kts | 197° |
| 2026-05-06 16:29 | 44.72272 | 5.72744 | 36248 ft | 399 kts | 196° |
| 2026-05-06 16:29 | 44.69559 | 5.71917 | 36466 ft | 399 kts | 196° |
| 2026-05-06 16:29 | 44.66971 | 5.71130 | 36708 ft | 400 kts | 196° |
| 2026-05-06 16:30 | 44.64261 | 5.70302 | 36875 ft | 401 kts | 196° |
| 2026-05-06 16:30 | 44.62459 | 5.69754 | 36908 ft | 399 kts | 196° |
| 2026-05-06 16:30 | 44.56088 | 5.67823 | 36906 ft | 407 kts | 196° |
| 2026-05-06 16:31 | 44.50510 | 5.66133 | 36904 ft | 412 kts | 196° |
| 2026-05-06 16:31 | 44.44938 | 5.64444 | 36903 ft | 412 kts | 196° |
| 2026-05-06 16:32 | 44.39335 | 5.62755 | 36904 ft | 412 kts | 197° |
| 2026-05-06 16:32 | 44.33971 | 5.60147 | 36894 ft | 407 kts | 205° |
| 2026-05-06 16:33 | 44.28697 | 5.57242 | 36895 ft | 407 kts | 205° |
| 2026-05-06 16:34 | 44.26006 | 5.55833 | 36890 ft | 408 kts | 204° |
| 2026-05-06 16:34 | 44.20722 | 5.52955 | 36891 ft | 408 kts | 205° |
| 2026-05-06 16:35 | 44.15453 | 5.50028 | 36895 ft | 407 kts | 205° |
| 2026-05-06 16:35 | 44.10177 | 5.47133 | 36893 ft | 407 kts | 205° |
| 2026-05-06 16:36 | 44.04898 | 5.44267 | 36893 ft | 407 kts | 205° |
| 2026-05-06 16:36 | 43.99616 | 5.41409 | 36897 ft | 407 kts | 205° |
| 2026-05-06 16:37 | 43.94375 | 5.38575 | 36896 ft | 406 kts | 205° |
| 2026-05-06 16:37 | 43.89112 | 5.35718 | 36891 ft | 406 kts | 205° |
| 2026-05-06 16:38 | 43.86481 | 5.34296 | 36901 ft | 406 kts | 205° |